createdAt,value
2018-04-13T00:00:04.533Z,25.87
2018-04-13T00:02:32.800Z,26.60
2018-04-13T00:05:00.279Z,25.57
2018-04-13T00:07:28.541Z,25.33
2018-04-13T00:09:56.843Z,28.07
2018-04-13T00:12:25.092Z,28.40
2018-04-13T00:14:53.399Z,26.40
2018-04-13T00:17:20.887Z,26.80
2018-04-13T00:19:48.369Z,27.43
2018-04-13T00:22:15.954Z,39.40
2018-04-13T00:24:44.225Z,27.10
2018-04-13T00:27:12.486Z,26.00
2018-04-13T00:29:39.979Z,28.17
2018-04-13T00:32:07.561Z,26.00
2018-04-13T00:34:35.085Z,26.00
2018-04-13T00:37:03.372Z,24.93
2018-04-13T00:39:31.621Z,26.60
2018-04-13T00:41:59.117Z,24.93
2018-04-13T00:44:26.601Z,25.27
2018-04-13T00:46:54.093Z,24.67
2018-04-13T00:49:21.584Z,25.43
2018-04-13T00:51:49.074Z,23.63
2018-04-13T00:54:16.613Z,28.40
2018-04-13T00:56:44.102Z,25.07
2018-04-13T00:59:11.626Z,26.00
2018-04-13T01:01:39.117Z,29.77
2018-04-13T01:04:06.638Z,31.07
2018-04-13T01:06:34.135Z,29.60
2018-04-13T01:09:01.644Z,25.90
2018-04-13T01:11:29.175Z,26.03
2018-04-13T01:13:56.761Z,27.73
2018-04-13T01:16:25.023Z,25.40
2018-04-13T01:18:53.314Z,26.17
2018-04-13T01:21:21.618Z,25.70
2018-04-13T01:23:49.097Z,26.03
2018-04-13T01:26:16.620Z,28.77
2018-04-13T01:28:44.115Z,25.47
2018-04-13T01:31:11.621Z,26.23
2018-04-13T01:33:39.909Z,29.63
2018-04-13T01:36:08.159Z,27.30
2018-04-13T01:38:36.461Z,26.33
2018-04-13T01:41:04.825Z,28.77
2018-04-13T01:43:32.301Z,27.07
2018-04-13T01:45:59.858Z,27.23
2018-04-13T01:48:28.798Z,24.30
2018-04-13T01:50:56.310Z,24.83
2018-04-13T01:53:23.891Z,27.30
2018-04-13T01:55:51.413Z,26.60
2018-04-13T01:58:19.709Z,23.23
2018-04-13T02:00:47.197Z,24.77
2018-04-13T02:03:14.718Z,24.60
2018-04-13T02:05:42.989Z,26.23
2018-04-13T02:08:11.236Z,27.30
2018-04-13T02:10:38.743Z,24.50
2018-04-13T02:13:06.293Z,24.00
2018-04-13T02:15:34.539Z,23.97
2018-04-13T02:18:02.064Z,24.17
2018-04-13T02:20:29.593Z,24.00
2018-04-13T02:22:57.093Z,26.60
2018-04-13T02:25:24.593Z,24.17
2018-04-13T02:27:52.843Z,24.63
2018-04-13T02:30:20.312Z,24.10
2018-04-13T02:32:47.834Z,24.67
2018-04-13T02:35:15.330Z,24.87
2018-04-13T02:37:42.831Z,24.17
2018-04-13T02:40:10.379Z,23.27
2018-04-13T02:42:37.859Z,23.20
2018-04-13T02:45:05.386Z,21.93
2018-04-13T02:47:33.644Z,24.93
2018-04-13T02:50:01.245Z,24.93
2018-04-13T02:52:28.743Z,27.03
2018-04-13T02:54:56.236Z,22.60
2018-04-13T02:57:24.494Z,22.83
2018-04-13T02:59:53.477Z,23.53
2018-04-13T03:02:20.963Z,22.30
2018-04-13T03:04:49.208Z,23.77
2018-04-13T03:07:16.804Z,23.23
2018-04-13T03:09:45.048Z,21.80
2018-04-13T03:12:12.562Z,23.07
2018-04-13T03:14:40.037Z,24.00
2018-04-13T03:17:07.553Z,23.00
2018-04-13T03:19:35.931Z,22.87
2018-04-13T03:22:03.464Z,23.93
2018-04-13T03:24:31.057Z,24.87
2018-04-13T03:26:59.317Z,22.70
2018-04-13T03:29:26.816Z,24.60
2018-04-13T03:31:54.303Z,24.50
2018-04-13T03:34:21.938Z,21.60
2018-04-13T03:36:49.432Z,23.57
2018-04-13T03:39:16.985Z,26.23
2018-04-13T03:41:44.472Z,22.97
2018-04-13T03:44:12.736Z,24.80
2018-04-13T03:46:40.500Z,23.20
2018-04-13T03:49:08.073Z,24.33
2018-04-13T03:51:36.325Z,22.50
2018-04-13T03:54:03.923Z,22.40
2018-04-13T03:56:32.168Z,24.23
2018-04-13T03:58:59.666Z,23.20
2018-04-13T04:01:27.166Z,34.43
2018-04-13T04:03:54.798Z,29.67
2018-04-13T04:06:22.325Z,30.33
2018-04-13T04:08:49.840Z,29.73
2018-04-13T04:11:17.343Z,22.47
2018-04-13T04:13:45.646Z,21.23
2018-04-13T04:16:13.125Z,20.37
2018-04-13T04:18:40.660Z,21.97
2018-04-13T04:21:20.057Z,21.83
2018-04-13T04:23:59.539Z,20.83
2018-04-13T04:26:39.449Z,21.07
2018-04-13T04:29:07.039Z,30.73
2018-04-13T04:31:35.302Z,27.60
2018-04-13T04:34:03.587Z,26.73
2018-04-13T04:36:31.855Z,21.73
2018-04-13T04:39:00.141Z,21.00
2018-04-13T04:41:28.386Z,22.90
2018-04-13T04:43:55.975Z,21.57
2018-04-13T04:46:24.244Z,21.23
2018-04-13T04:48:52.509Z,26.40
2018-04-13T04:51:19.994Z,32.90
2018-04-13T04:53:47.481Z,27.70
2018-04-13T04:56:14.965Z,23.93
2018-04-13T04:58:42.582Z,26.43
2018-04-13T05:01:10.168Z,26.23
2018-04-13T05:03:37.658Z,24.13
2018-04-13T05:06:05.141Z,23.73
2018-04-13T05:08:33.395Z,26.07
2018-04-13T05:11:00.874Z,20.60
2018-04-13T05:13:28.400Z,23.07
2018-04-13T05:15:55.882Z,25.03
2018-04-13T05:18:23.390Z,23.07
2018-04-13T05:20:50.878Z,26.47
2018-04-13T05:23:18.469Z,28.03
2018-04-13T05:25:46.714Z,26.20
2018-04-13T05:28:14.221Z,29.20
2018-04-13T05:30:41.768Z,28.13
2018-04-13T05:33:10.045Z,27.93
2018-04-13T05:35:38.485Z,27.30
2018-04-13T05:38:06.083Z,30.07
2018-04-13T05:40:34.349Z,27.67
2018-04-13T05:43:01.874Z,25.47
2018-04-13T05:45:29.356Z,25.80
2018-04-13T05:47:56.844Z,26.80
2018-04-13T05:50:24.325Z,26.70
2018-04-13T05:52:51.841Z,30.83
2018-04-13T05:55:20.182Z,24.87
2018-04-13T05:57:47.668Z,27.00
2018-04-13T06:00:15.156Z,27.10
2018-04-13T06:02:42.655Z,24.93
2018-04-13T06:05:10.133Z,25.83
2018-04-13T06:07:37.624Z,25.23
2018-04-13T06:10:05.870Z,24.17
2018-04-13T06:12:33.396Z,26.60
2018-04-13T06:15:00.922Z,28.37
2018-04-13T06:17:28.477Z,26.27
2018-04-13T06:19:56.755Z,22.70
2018-04-13T06:22:25.031Z,32.67
2018-04-13T06:24:52.571Z,24.20
2018-04-13T06:27:20.845Z,27.17
2018-04-13T06:29:48.313Z,22.40
2018-04-13T06:32:16.568Z,23.33
2018-04-13T06:34:44.148Z,22.43
2018-04-13T06:37:12.436Z,21.80
2018-04-13T06:39:39.964Z,22.33
2018-04-13T06:42:07.513Z,22.57
2018-04-13T06:44:34.990Z,25.60
2018-04-13T06:47:02.506Z,21.87
2018-04-13T06:49:30.000Z,26.43
2018-04-13T06:51:57.492Z,22.57
2018-04-13T06:54:25.018Z,24.33
2018-04-13T06:56:52.681Z,21.47
2018-04-13T06:59:20.338Z,24.70
2018-04-13T07:01:47.923Z,25.57
2018-04-13T07:04:15.430Z,25.40
2018-04-13T07:06:42.964Z,28.93
2018-04-13T07:09:10.517Z,27.27
2018-04-13T07:11:38.065Z,29.97
2018-04-13T07:14:06.316Z,30.53
2018-04-13T07:16:33.800Z,30.23
2018-04-13T07:19:02.066Z,32.30
2018-04-13T07:21:29.635Z,33.37
2018-04-13T07:23:57.902Z,28.80
2018-04-13T07:26:25.387Z,30.00
2018-04-13T07:28:52.922Z,30.50
2018-04-13T07:31:21.180Z,32.00
2018-04-13T07:33:48.675Z,35.13
2018-04-13T07:36:17.445Z,32.30
2018-04-13T07:38:44.447Z,38.80
2018-04-13T07:41:11.958Z,37.47
2018-04-13T07:43:40.273Z,38.00
2018-04-13T07:46:07.776Z,37.80
2018-04-13T07:48:35.268Z,39.53
2018-04-13T07:51:02.807Z,38.20
2018-04-13T07:53:31.080Z,40.17
2018-04-13T07:55:58.663Z,37.13
2018-04-13T07:58:26.146Z,35.67
2018-04-13T08:00:53.944Z,36.20
2018-04-13T08:03:21.120Z,37.43
2018-04-13T08:05:49.381Z,35.23
2018-04-13T08:08:17.672Z,34.03
2018-04-13T08:10:46.056Z,36.10
2018-04-13T08:13:14.319Z,34.20
2018-04-13T08:15:41.796Z,32.23
2018-04-13T08:18:10.055Z,30.80
2018-04-13T08:20:37.532Z,32.17
2018-04-13T08:23:05.812Z,29.17
2018-04-13T08:25:34.081Z,28.90
2018-04-13T08:28:02.345Z,27.13
2018-04-13T08:30:29.916Z,29.63
2018-04-13T08:32:57.457Z,26.93
2018-04-13T08:35:25.780Z,29.73
2018-04-13T08:37:53.300Z,27.67
2018-04-13T08:40:20.801Z,34.80
2018-04-13T08:42:48.298Z,28.20
2018-04-13T08:45:15.984Z,34.43
2018-04-13T08:47:44.279Z,33.83
2018-04-13T08:50:12.545Z,31.43
2018-04-13T08:52:40.065Z,30.47
2018-04-13T08:55:07.570Z,28.20
2018-04-13T08:57:35.820Z,30.13
2018-04-13T09:00:03.405Z,25.97
2018-04-13T09:02:30.969Z,24.90
2018-04-13T09:04:58.480Z,24.67
2018-04-13T09:07:25.984Z,23.23
2018-04-13T09:09:54.246Z,24.33
2018-04-13T09:12:22.522Z,25.93
2018-04-13T09:14:50.779Z,24.03
2018-04-13T09:17:18.312Z,22.23
2018-04-13T09:19:45.838Z,21.40
2018-04-13T09:22:13.357Z,22.50
2018-04-13T09:24:40.981Z,25.20
2018-04-13T09:27:08.477Z,23.20
2018-04-13T09:29:36.082Z,21.83
2018-04-13T09:32:03.627Z,25.53
2018-04-13T09:34:31.880Z,24.97
2018-04-13T09:36:59.376Z,21.27
2018-04-13T09:39:26.891Z,24.33
2018-04-13T09:41:54.473Z,23.80
2018-04-13T09:44:22.824Z,20.07
2018-04-13T09:46:50.281Z,21.47
2018-04-13T09:49:17.779Z,22.23
2018-04-13T09:51:45.272Z,24.90
2018-04-13T09:54:12.752Z,23.80
2018-04-13T09:56:40.239Z,22.23
2018-04-13T09:59:08.619Z,23.37
2018-04-13T10:01:39.780Z,23.20
2018-04-13T10:04:13.294Z,24.53
2018-04-13T10:06:40.807Z,24.67
2018-04-13T10:09:08.325Z,19.37
2018-04-13T10:11:36.516Z,17.50
2018-04-13T10:14:04.941Z,20.07
2018-04-13T10:16:33.219Z,19.93
2018-04-13T10:19:01.496Z,20.07
2018-04-13T10:21:29.756Z,16.57
2018-04-13T10:23:57.230Z,16.53
2018-04-13T10:26:25.489Z,13.07
2018-04-13T10:28:53.002Z,14.83
2018-04-13T10:31:20.493Z,22.50
2018-04-13T10:33:48.072Z,16.33
2018-04-13T10:36:16.350Z,13.67
2018-04-13T10:38:44.599Z,13.87
2018-04-13T10:41:12.110Z,14.60
2018-04-13T10:43:39.594Z,12.63
2018-04-13T10:46:07.088Z,15.23
2018-04-13T10:48:34.560Z,14.77
2018-04-13T10:51:02.835Z,13.40
2018-04-13T10:53:31.083Z,12.67
2018-04-13T10:55:58.706Z,13.03
2018-04-13T10:58:26.195Z,16.87
2018-04-13T11:00:54.210Z,16.70
2018-04-13T11:03:21.739Z,11.87
2018-04-13T11:05:49.223Z,12.27
2018-04-13T11:08:17.467Z,10.93
2018-04-13T11:10:44.963Z,11.93
2018-04-13T11:13:13.248Z,12.23
2018-04-13T11:15:40.746Z,15.20
2018-04-13T11:18:08.249Z,12.87
2018-04-13T11:20:36.504Z,12.67
2018-04-13T11:23:04.109Z,12.37
2018-04-13T11:25:31.641Z,15.00
2018-04-13T11:27:59.116Z,9.70
2018-04-13T11:30:27.360Z,11.53
2018-04-13T11:32:54.856Z,9.77
2018-04-13T11:35:22.488Z,14.43
2018-04-13T11:37:50.073Z,13.00
2018-04-13T11:40:17.568Z,12.37
2018-04-13T11:42:45.254Z,11.53
2018-04-13T11:45:13.557Z,10.17
2018-04-13T11:47:41.869Z,12.80
2018-04-13T11:50:09.372Z,11.17
2018-04-13T11:52:37.143Z,9.93
2018-04-13T11:55:04.665Z,11.50
2018-04-13T11:57:32.191Z,12.63
2018-04-13T11:59:59.779Z,10.67
2018-04-13T12:02:27.330Z,11.63
2018-04-13T12:04:54.836Z,10.93
2018-04-13T12:07:22.405Z,12.10
2018-04-13T12:09:49.923Z,11.27
2018-04-13T12:12:17.393Z,11.47
2018-04-13T12:14:44.911Z,9.67
2018-04-13T12:17:12.392Z,11.23
2018-04-13T12:19:39.868Z,10.40
2018-04-13T12:22:07.357Z,8.60
2018-04-13T12:24:36.371Z,10.13
2018-04-13T12:27:04.646Z,12.50
2018-04-13T12:29:32.921Z,10.33
2018-04-13T12:32:01.166Z,11.67
2018-04-13T12:34:29.488Z,11.47
2018-04-13T12:36:57.013Z,12.20
2018-04-13T12:39:24.508Z,10.93
2018-04-13T12:41:51.978Z,13.10
2018-04-13T12:44:19.499Z,11.00
2018-04-13T12:46:47.744Z,12.90
2018-04-13T12:49:15.250Z,11.63
2018-04-13T12:51:42.743Z,12.27
2018-04-13T12:54:10.318Z,10.40
2018-04-13T12:56:37.788Z,12.37
2018-04-13T12:59:05.402Z,11.27
2018-04-13T13:01:32.943Z,13.47
2018-04-13T13:04:00.463Z,10.93
2018-04-13T13:06:27.942Z,8.10
2018-04-13T13:08:56.248Z,12.77
2018-04-13T13:11:24.481Z,14.00
2018-04-13T13:13:51.986Z,11.57
2018-04-13T13:16:20.229Z,13.53
2018-04-13T13:18:47.764Z,10.73
2018-04-13T13:21:15.249Z,11.17
2018-04-13T13:23:43.508Z,11.37
2018-04-13T13:26:10.991Z,10.90
2018-04-13T13:28:39.262Z,9.77
2018-04-13T13:31:06.824Z,12.23
2018-04-13T13:33:35.081Z,12.50
2018-04-13T13:36:02.561Z,11.07
2018-04-13T13:38:30.808Z,11.17
2018-04-13T13:40:59.111Z,10.00
2018-04-13T13:43:27.361Z,13.50
2018-04-13T13:45:55.063Z,11.43
2018-04-13T13:48:22.572Z,10.80
2018-04-13T13:50:50.062Z,11.97
2018-04-13T13:53:18.363Z,11.23
2018-04-13T13:55:46.025Z,12.90
2018-04-13T13:58:13.535Z,8.77
2018-04-13T14:00:41.028Z,11.87
2018-04-13T14:03:09.273Z,12.27
2018-04-13T14:05:37.300Z,10.13
2018-04-13T14:08:04.823Z,12.40
2018-04-13T14:10:32.318Z,13.37
2018-04-13T14:12:59.852Z,13.67
2018-04-13T14:15:28.117Z,10.60
2018-04-13T14:17:56.387Z,12.13
2018-04-13T14:20:23.889Z,9.30
2018-04-13T14:22:51.396Z,11.33
2018-04-13T14:25:18.977Z,10.83
2018-04-13T14:27:47.231Z,11.87
2018-04-13T14:30:14.759Z,10.40
2018-04-13T14:32:42.270Z,8.97
2018-04-13T14:35:10.521Z,11.97
2018-04-13T14:37:38.018Z,10.50
2018-04-13T14:40:06.292Z,8.57
2018-04-13T14:42:34.549Z,11.80
2018-04-13T14:45:02.042Z,9.50
2018-04-13T14:47:29.526Z,10.37
2018-04-13T14:49:57.085Z,9.70
2018-04-13T14:52:24.852Z,11.00
2018-04-13T14:54:52.350Z,10.70
2018-04-13T14:57:19.822Z,8.50
2018-04-13T14:59:48.093Z,10.10
2018-04-13T15:02:16.474Z,9.23
2018-04-13T15:04:43.959Z,8.57
2018-04-13T15:07:12.220Z,10.00
2018-04-13T15:09:39.724Z,12.03
2018-04-13T15:12:07.336Z,10.27
2018-04-13T15:14:35.625Z,10.07
2018-04-13T15:17:04.016Z,13.43
2018-04-13T15:19:31.541Z,11.53
2018-04-13T15:21:59.802Z,12.97
2018-04-13T15:24:27.290Z,12.33
2018-04-13T15:26:55.565Z,11.73
2018-04-13T15:29:23.833Z,10.10
2018-04-13T15:31:52.168Z,10.87
2018-04-13T15:34:19.679Z,10.47
2018-04-13T15:36:47.956Z,10.87
2018-04-13T15:39:16.217Z,12.87
2018-04-13T15:41:44.469Z,8.53
2018-04-13T15:44:12.081Z,10.40
2018-04-13T15:46:39.564Z,11.13
2018-04-13T15:49:07.146Z,9.97
2018-04-13T15:51:34.653Z,11.10
2018-04-13T15:54:02.958Z,12.67
2018-04-13T15:56:30.484Z,10.33
2018-04-13T15:58:58.017Z,11.37
2018-04-13T16:01:25.522Z,10.40
2018-04-13T16:03:53.050Z,11.23
2018-04-13T16:06:21.322Z,12.17
2018-04-13T16:08:49.610Z,12.30
2018-04-13T16:11:17.865Z,8.77
2018-04-13T16:13:45.341Z,13.40
2018-04-13T16:16:12.856Z,11.83
2018-04-13T16:18:40.352Z,12.27
2018-04-13T16:21:07.869Z,10.20
2018-04-13T16:23:35.382Z,13.83
2018-04-13T16:26:03.677Z,13.07
2018-04-13T16:28:31.165Z,13.13
2018-04-13T16:30:58.785Z,11.40
2018-04-13T16:33:26.313Z,10.37
2018-04-13T16:35:53.892Z,10.13
2018-04-13T16:38:22.203Z,11.53
2018-04-13T16:40:49.730Z,11.30
2018-04-13T16:43:17.997Z,11.17
2018-04-13T16:45:46.325Z,11.13
2018-04-13T16:48:14.763Z,10.23
2018-04-13T16:50:43.066Z,10.00
2018-04-13T16:53:10.561Z,12.07
2018-04-13T16:55:38.044Z,10.83
2018-04-13T16:58:05.625Z,11.43
2018-04-13T17:00:33.863Z,12.03
2018-04-13T17:03:01.451Z,6.77
2018-04-13T17:05:29.685Z,6.70
2018-04-13T17:07:57.354Z,8.40
2018-04-13T17:10:24.853Z,7.63
2018-04-13T17:12:53.123Z,10.70
2018-04-13T17:15:20.641Z,14.10
2018-04-13T17:17:48.138Z,8.73
2018-04-13T17:20:16.417Z,9.50
2018-04-13T17:22:44.691Z,9.37
2018-04-13T17:25:13.073Z,10.03
2018-04-13T17:27:41.343Z,10.30
2018-04-13T17:30:09.609Z,10.93
2018-04-13T17:32:37.113Z,8.97
2018-04-13T17:35:04.636Z,11.17
2018-04-13T17:37:32.893Z,10.37
2018-04-13T17:40:00.400Z,12.50
2018-04-13T17:42:27.896Z,10.13
2018-04-13T17:44:55.384Z,10.57
2018-04-13T17:47:23.912Z,8.53
2018-04-13T17:49:51.397Z,7.77
2018-04-13T17:52:18.913Z,8.20
2018-04-13T17:54:46.446Z,8.27
2018-04-13T17:57:14.024Z,10.63
2018-04-13T17:59:42.268Z,10.50
2018-04-13T18:02:10.561Z,8.60
2018-04-13T18:04:38.824Z,8.97
2018-04-13T18:07:06.315Z,9.13
2018-04-13T18:09:33.782Z,8.20
2018-04-13T18:12:01.323Z,9.73
2018-04-13T18:14:29.577Z,12.30
2018-04-13T18:16:57.049Z,6.80
2018-04-13T18:19:25.311Z,7.17
2018-04-13T18:21:53.647Z,8.23
2018-04-13T18:24:21.185Z,9.20
2018-04-13T18:26:48.666Z,6.97
2018-04-13T18:29:16.179Z,9.03
2018-04-13T18:31:44.445Z,8.23
2018-04-13T18:34:11.926Z,6.57
2018-04-13T18:36:40.185Z,6.40
2018-04-13T18:39:08.461Z,8.23
2018-04-13T18:41:35.954Z,5.70
2018-04-13T18:44:03.436Z,7.47
2018-04-13T18:46:30.917Z,6.83
2018-04-13T18:48:58.522Z,6.03
2018-04-13T18:51:25.997Z,7.60
2018-04-13T18:53:54.378Z,6.57
2018-04-13T18:56:21.889Z,7.40
2018-04-13T18:58:49.382Z,7.27
2018-04-13T19:01:16.892Z,8.50
2018-04-13T19:03:44.380Z,9.90
2018-04-13T19:06:12.669Z,7.97
2018-04-13T19:08:40.225Z,10.17
2018-04-13T19:11:08.463Z,9.50
2018-04-13T19:13:35.979Z,13.03
2018-04-13T19:16:03.521Z,15.47
2018-04-13T19:18:31.048Z,12.23
2018-04-13T19:20:58.628Z,13.27
2018-04-13T19:23:26.881Z,9.80
2018-04-13T19:25:54.392Z,10.17
2018-04-13T19:28:21.919Z,8.63
2018-04-13T19:30:50.187Z,8.47
2018-04-13T19:33:18.460Z,8.47
2018-04-13T19:35:45.941Z,9.13
2018-04-13T19:38:14.263Z,8.00
2018-04-13T19:40:41.751Z,6.30
2018-04-13T19:43:09.243Z,9.30
2018-04-13T19:45:36.710Z,6.40
2018-04-13T19:48:04.204Z,7.40
2018-04-13T19:50:31.677Z,6.37
2018-04-13T19:52:59.927Z,5.40
2018-04-13T19:55:27.415Z,11.70
2018-04-13T19:57:55.042Z,4.57
2018-04-13T20:00:22.535Z,5.77
2018-04-13T20:02:50.848Z,4.17
2018-04-13T20:05:18.364Z,4.60
2018-04-13T20:07:45.953Z,4.27
2018-04-13T20:10:14.253Z,5.07
2018-04-13T20:12:41.831Z,4.97
2018-04-13T20:15:09.582Z,4.67
2018-04-13T20:17:37.097Z,4.20
2018-04-13T20:20:04.688Z,5.43
2018-04-13T20:22:32.168Z,4.43
2018-04-13T20:24:59.669Z,3.40
2018-04-13T20:27:27.190Z,3.50
2018-04-13T20:29:54.660Z,4.63
2018-04-13T20:32:22.227Z,4.70
2018-04-13T20:34:49.784Z,5.07
2018-04-13T20:37:17.345Z,3.60
2018-04-13T20:39:44.841Z,5.07
2018-04-13T20:42:13.087Z,4.10
2018-04-13T20:44:40.575Z,5.23
2018-04-13T20:47:08.849Z,4.37
2018-04-13T20:49:37.098Z,5.07
2018-04-13T20:52:04.610Z,5.00
2018-04-13T20:54:32.139Z,4.67
2018-04-13T20:56:59.645Z,6.73
2018-04-13T20:59:27.916Z,4.77
2018-04-13T21:01:55.431Z,6.70
2018-04-13T21:04:22.902Z,6.10
2018-04-13T21:06:51.266Z,5.77
2018-04-13T21:09:18.761Z,5.43
2018-04-13T21:11:46.313Z,7.43
2018-04-13T21:14:15.774Z,6.07
2018-04-13T21:16:43.331Z,6.00
2018-04-13T21:19:10.810Z,7.63
2018-04-13T21:21:39.075Z,7.17
2018-04-13T21:24:06.623Z,7.27
2018-04-13T21:26:34.249Z,8.90
2018-04-13T21:29:01.786Z,7.23
2018-04-13T21:31:30.042Z,6.83
2018-04-13T21:33:57.595Z,7.80
2018-04-13T21:36:25.161Z,7.20
2018-04-13T21:38:52.633Z,7.40
2018-04-13T21:41:20.907Z,7.63
2018-04-13T21:43:49.155Z,7.27
2018-04-13T21:46:16.654Z,8.10
2018-04-13T21:48:44.133Z,8.70
2018-04-13T21:51:11.629Z,8.27
2018-04-13T21:53:39.163Z,9.50
2018-04-13T21:56:06.722Z,11.17
2018-04-13T21:58:34.224Z,9.73
2018-04-13T22:01:01.792Z,9.43
2018-04-13T22:03:30.073Z,8.70
2018-04-13T22:05:58.322Z,9.03
2018-04-13T22:08:25.922Z,9.67
2018-04-13T22:10:53.495Z,8.47
2018-04-13T22:13:29.993Z,8.60
2018-04-13T22:15:57.629Z,7.50
2018-04-13T22:18:25.569Z,7.00
2018-04-13T22:20:53.984Z,6.80
2018-04-13T22:23:21.476Z,6.93
2018-04-13T22:25:48.982Z,7.40
2018-04-13T22:28:16.464Z,7.53
2018-04-13T22:30:43.985Z,7.97
2018-04-13T22:33:12.238Z,7.20
2018-04-13T22:35:39.721Z,7.10
2018-04-13T22:38:07.998Z,6.60
2018-04-13T22:40:36.277Z,7.07
2018-04-13T22:43:04.557Z,6.93
2018-04-13T22:45:32.102Z,6.33
2018-04-13T22:48:00.417Z,6.60
2018-04-13T22:50:27.937Z,5.53
2018-04-13T22:52:56.198Z,6.00
2018-04-13T22:55:23.877Z,5.87
2018-04-13T22:57:52.190Z,6.13
2018-04-13T23:00:19.826Z,5.90
2018-04-13T23:02:48.105Z,5.90
2018-04-13T23:05:15.730Z,6.57
2018-04-13T23:07:43.215Z,7.07
2018-04-13T23:10:11.477Z,8.17
2018-04-13T23:12:38.940Z,6.50
2018-04-13T23:15:06.525Z,7.80
2018-04-13T23:17:34.780Z,7.63
2018-04-13T23:20:02.305Z,8.37
2018-04-13T23:22:39.596Z,8.30
2018-04-13T23:25:07.210Z,9.87
2018-04-13T23:27:34.684Z,8.93
2018-04-13T23:30:02.162Z,9.40
2018-04-13T23:32:29.722Z,9.90
2018-04-13T23:34:57.203Z,9.03
2018-04-13T23:37:24.780Z,9.50
2018-04-13T23:39:53.040Z,9.97
2018-04-13T23:42:20.524Z,10.60
2018-04-13T23:44:48.804Z,9.50
2018-04-13T23:47:17.053Z,9.50
2018-04-13T23:49:44.621Z,10.33
2018-04-13T23:52:16.961Z,10.60
2018-04-13T23:54:44.453Z,9.70
2018-04-13T23:57:12.051Z,9.47
2018-04-13T23:59:40.050Z,10.03
